KVLD/VLD METAR and TAF weather

Enter ICAO airport designator
Station Type Date Time Source
KVLD METAR 2019/10/15 19:00 UTC NOAA

KVLD 151900Z 06006KT 10SM SCT027 BKN038 BKN047 26/22 A3000 RMK AO2 T02610217


Station Type Date Time Source
KVLD Decoded METAR 2019/10/15 19:00 UTC NOAA

VALDOSTA REGIONAL AIRPORT, GA, United States (KVLD) 30-47N 083-16W
Oct 15, 2019 - 03:00 PM EDT / 2019.10.15 1900 UTC
Wind: from the ENE (060 degrees) at 7 MPH (6 KT):0
Visibility: 10 mile(s):0
Sky conditions: mostly cloudy
Temperature: 79.0 F (26.1 C)
Dew Point: 71.1 F (21.7 C)
Relative Humidity: 76%
Pressure (altimeter): 30 in. Hg (1015 hPa)
ob: KVLD 151900Z 06006KT 10SM SCT027 BKN038 BKN047 26/22 A3000 RMK AO2 T02610217
cycle: 19

Station Type Date Time Source
KVLD TAF 2019/10/15 18:22 UTC NOAA

TAF KVLD 151720Z 1518/1618 08003KT P6SM BKN020
FM152100 10008KT 4SM SHRA VCTS BKN025CB
FM160200 16004KT 4SM BR BKN008
FM161500 28005KT P6SM BKN025

Example: see airport list